sensor_id;sensor_type;location;lat;lon;timestamp;P1;durP1;ratioP1;P2;durP2;ratioP2
20814;SDS011;10568;48.176;16.316;2024-03-25T00:02:05;0.70;;;0.60;;
20814;SDS011;10568;48.176;16.316;2024-03-25T00:04:32;0.90;;;0.80;;
20814;SDS011;10568;48.176;16.316;2024-03-25T00:06:58;0.73;;;0.63;;
20814;SDS011;10568;48.176;16.316;2024-03-25T00:09:24;0.80;;;0.70;;
20814;SDS011;10568;48.176;16.316;2024-03-25T00:11:50;1.00;;;0.70;;
20814;SDS011;10568;48.176;16.316;2024-03-25T00:17:12;0.70;;;0.70;;
20814;SDS011;10568;48.176;16.316;2024-03-25T00:19:57;0.70;;;0.70;;
20814;SDS011;10568;48.176;16.316;2024-03-25T00:22:23;0.83;;;0.50;;
20814;SDS011;10568;48.176;16.316;2024-03-25T00:24:52;1.20;;;0.90;;
20814;SDS011;10568;48.176;16.316;2024-03-25T00:27:18;0.60;;;0.60;;
20814;SDS011;10568;48.176;16.316;2024-03-25T00:29:45;0.80;;;0.80;;
20814;SDS011;10568;48.176;16.316;2024-03-25T00:32:11;0.60;;;0.60;;
20814;SDS011;10568;48.176;16.316;2024-03-25T00:34:37;0.67;;;0.67;;
20814;SDS011;10568;48.176;16.316;2024-03-25T00:37:03;1.10;;;0.90;;
20814;SDS011;10568;48.176;16.316;2024-03-25T00:39:30;1.23;;;0.90;;
20814;SDS011;10568;48.176;16.316;2024-03-25T00:42:00;0.90;;;0.60;;
20814;SDS011;10568;48.176;16.316;2024-03-25T00:44:26;2.40;;;0.80;;
20814;SDS011;10568;48.176;16.316;2024-03-25T00:46:52;0.67;;;0.67;;
20814;SDS011;10568;48.176;16.316;2024-03-25T00:49:18;1.23;;;0.90;;
20814;SDS011;10568;48.176;16.316;2024-03-25T00:51:44;1.90;;;0.80;;
20814;SDS011;10568;48.176;16.316;2024-03-25T00:54:11;1.10;;;0.80;;
20814;SDS011;10568;48.176;16.316;2024-03-25T00:56:37;1.50;;;1.00;;
20814;SDS011;10568;48.176;16.316;2024-03-25T00:59:03;1.97;;;0.80;;
20814;SDS011;10568;48.176;16.316;2024-03-25T01:01:29;0.70;;;0.70;;
20814;SDS011;10568;48.176;16.316;2024-03-25T01:03:55;1.07;;;0.70;;
20814;SDS011;10568;48.176;16.316;2024-03-25T01:06:22;0.60;;;0.60;;
20814;SDS011;10568;48.176;16.316;2024-03-25T01:08:48;1.40;;;0.90;;
20814;SDS011;10568;48.176;16.316;2024-03-25T01:11:15;1.20;;;0.87;;
20814;SDS011;10568;48.176;16.316;2024-03-25T01:13:42;1.43;;;0.90;;
20814;SDS011;10568;48.176;16.316;2024-03-25T01:16:08;1.47;;;0.97;;
20814;SDS011;10568;48.176;16.316;2024-03-25T01:18:35;1.23;;;1.13;;
20814;SDS011;10568;48.176;16.316;2024-03-25T01:21:01;0.73;;;0.73;;
20814;SDS011;10568;48.176;16.316;2024-03-25T01:23:28;1.47;;;1.13;;
20814;SDS011;10568;48.176;16.316;2024-03-25T01:25:54;1.20;;;1.10;;
20814;SDS011;10568;48.176;16.316;2024-03-25T01:28:20;2.70;;;1.00;;
20814;SDS011;10568;48.176;16.316;2024-03-25T01:30:46;1.27;;;1.10;;
20814;SDS011;10568;48.176;16.316;2024-03-25T01:33:12;2.17;;;0.97;;
20814;SDS011;10568;48.176;16.316;2024-03-25T01:35:38;1.93;;;1.10;;
20814;SDS011;10568;48.176;16.316;2024-03-25T01:38:05;1.20;;;1.00;;
20814;SDS011;10568;48.176;16.316;2024-03-25T01:40:31;1.27;;;0.80;;
20814;SDS011;10568;48.176;16.316;2024-03-25T01:43:00;1.10;;;1.00;;
20814;SDS011;10568;48.176;16.316;2024-03-25T01:45:31;2.93;;;1.03;;
20814;SDS011;10568;48.176;16.316;2024-03-25T01:48:06;1.13;;;0.90;;
20814;SDS011;10568;48.176;16.316;2024-03-25T01:50:36;1.17;;;0.90;;
20814;SDS011;10568;48.176;16.316;2024-03-25T01:53:06;0.80;;;0.80;;
20814;SDS011;10568;48.176;16.316;2024-03-25T01:55:33;1.73;;;0.90;;
20814;SDS011;10568;48.176;16.316;2024-03-25T01:58:01;1.57;;;1.00;;
20814;SDS011;10568;48.176;16.316;2024-03-25T02:00:28;0.97;;;0.90;;
20814;SDS011;10568;48.176;16.316;2024-03-25T02:02:55;2.07;;;1.00;;
20814;SDS011;10568;48.176;16.316;2024-03-25T02:05:22;0.80;;;0.80;;
20814;SDS011;10568;48.176;16.316;2024-03-25T02:07:48;1.57;;;0.60;;
20814;SDS011;10568;48.176;16.316;2024-03-25T02:10:14;0.90;;;0.80;;
20814;SDS011;10568;48.176;16.316;2024-03-25T02:12:44;0.57;;;0.57;;
20814;SDS011;10568;48.176;16.316;2024-03-25T02:15:11;0.70;;;0.70;;
20814;SDS011;10568;48.176;16.316;2024-03-25T02:17:38;0.93;;;0.90;;
20814;SDS011;10568;48.176;16.316;2024-03-25T02:20:07;0.70;;;0.70;;
20814;SDS011;10568;48.176;16.316;2024-03-25T02:22:39;0.90;;;0.83;;
20814;SDS011;10568;48.176;16.316;2024-03-25T02:25:06;1.77;;;0.90;;
20814;SDS011;10568;48.176;16.316;2024-03-25T02:27:37;1.80;;;1.20;;
20814;SDS011;10568;48.176;16.316;2024-03-25T02:32:33;1.50;;;1.13;;
20814;SDS011;10568;48.176;16.316;2024-03-25T02:35:03;1.40;;;1.10;;
20814;SDS011;10568;48.176;16.316;2024-03-25T02:37:40;1.20;;;1.10;;
20814;SDS011;10568;48.176;16.316;2024-03-25T02:40:08;1.30;;;1.17;;
20814;SDS011;10568;48.176;16.316;2024-03-25T02:42:37;1.33;;;1.00;;
20814;SDS011;10568;48.176;16.316;2024-03-25T02:45:05;1.40;;;1.20;;
20814;SDS011;10568;48.176;16.316;2024-03-25T02:47:32;1.40;;;1.30;;
20814;SDS011;10568;48.176;16.316;2024-03-25T02:49:58;2.03;;;1.10;;
20814;SDS011;10568;48.176;16.316;2024-03-25T02:52:24;2.50;;;1.20;;
20814;SDS011;10568;48.176;16.316;2024-03-25T02:54:50;1.60;;;1.50;;
20814;SDS011;10568;48.176;16.316;2024-03-25T02:57:16;2.23;;;1.20;;
20814;SDS011;10568;48.176;16.316;2024-03-25T02:59:43;1.47;;;1.20;;
20814;SDS011;10568;48.176;16.316;2024-03-25T03:02:09;1.57;;;1.20;;
20814;SDS011;10568;48.176;16.316;2024-03-25T03:04:35;3.10;;;1.10;;
20814;SDS011;10568;48.176;16.316;2024-03-25T03:07:09;1.97;;;1.40;;
20814;SDS011;10568;48.176;16.316;2024-03-25T03:09:35;2.20;;;1.37;;
20814;SDS011;10568;48.176;16.316;2024-03-25T03:12:02;2.27;;;1.60;;
20814;SDS011;10568;48.176;16.316;2024-03-25T03:14:29;2.07;;;1.77;;
20814;SDS011;10568;48.176;16.316;2024-03-25T03:16:56;2.23;;;1.63;;
20814;SDS011;10568;48.176;16.316;2024-03-25T03:19:29;2.27;;;1.50;;
20814;SDS011;10568;48.176;16.316;2024-03-25T03:21:56;2.77;;;1.77;;
20814;SDS011;10568;48.176;16.316;2024-03-25T03:24:22;1.30;;;1.20;;
20814;SDS011;10568;48.176;16.316;2024-03-25T03:26:49;2.67;;;1.27;;
20814;SDS011;10568;48.176;16.316;2024-03-25T03:29:15;1.30;;;1.17;;
20814;SDS011;10568;48.176;16.316;2024-03-25T03:31:41;1.87;;;1.40;;
20814;SDS011;10568;48.176;16.316;2024-03-25T03:34:09;1.33;;;1.13;;
20814;SDS011;10568;48.176;16.316;2024-03-25T03:36:35;2.50;;;1.67;;
20814;SDS011;10568;48.176;16.316;2024-03-25T03:39:01;2.20;;;1.30;;
20814;SDS011;10568;48.176;16.316;2024-03-25T03:41:29;1.30;;;1.20;;
20814;SDS011;10568;48.176;16.316;2024-03-25T03:43:56;1.70;;;1.43;;
20814;SDS011;10568;48.176;16.316;2024-03-25T03:46:22;3.57;;;1.40;;
20814;SDS011;10568;48.176;16.316;2024-03-25T03:48:48;1.40;;;1.20;;
20814;SDS011;10568;48.176;16.316;2024-03-25T03:51:17;2.30;;;1.30;;
20814;SDS011;10568;48.176;16.316;2024-03-25T03:53:43;1.73;;;1.30;;
20814;SDS011;10568;48.176;16.316;2024-03-25T03:56:09;1.63;;;1.27;;
20814;SDS011;10568;48.176;16.316;2024-03-25T03:58:35;1.70;;;1.40;;
20814;SDS011;10568;48.176;16.316;2024-03-25T04:01:01;2.47;;;1.70;;
20814;SDS011;10568;48.176;16.316;2024-03-25T04:03:30;1.80;;;1.40;;
20814;SDS011;10568;48.176;16.316;2024-03-25T04:05:56;2.53;;;1.70;;
20814;SDS011;10568;48.176;16.316;2024-03-25T04:08:22;1.23;;;1.13;;
20814;SDS011;10568;48.176;16.316;2024-03-25T04:10:49;2.43;;;1.40;;
20814;SDS011;10568;48.176;16.316;2024-03-25T04:13:15;1.70;;;1.60;;
20814;SDS011;10568;48.176;16.316;2024-03-25T04:15:48;2.10;;;1.50;;
20814;SDS011;10568;48.176;16.316;2024-03-25T04:18:14;1.60;;;1.50;;
20814;SDS011;10568;48.176;16.316;2024-03-25T04:20:41;1.40;;;1.13;;
20814;SDS011;10568;48.176;16.316;2024-03-25T04:23:07;1.33;;;1.20;;
20814;SDS011;10568;48.176;16.316;2024-03-25T04:25:34;2.10;;;1.50;;
20814;SDS011;10568;48.176;16.316;2024-03-25T04:28:03;1.73;;;1.50;;
20814;SDS011;10568;48.176;16.316;2024-03-25T04:30:31;1.83;;;1.50;;
20814;SDS011;10568;48.176;16.316;2024-03-25T04:32:59;1.37;;;1.27;;
20814;SDS011;10568;48.176;16.316;2024-03-25T04:35:27;2.00;;;1.60;;
20814;SDS011;10568;48.176;16.316;2024-03-25T04:37:53;2.67;;;1.67;;
20814;SDS011;10568;48.176;16.316;2024-03-25T04:40:21;3.13;;;1.77;;
20814;SDS011;10568;48.176;16.316;2024-03-25T04:42:47;2.93;;;1.67;;
20814;SDS011;10568;48.176;16.316;2024-03-25T04:45:14;2.73;;;1.90;;
20814;SDS011;10568;48.176;16.316;2024-03-25T04:47:41;3.00;;;1.57;;
20814;SDS011;10568;48.176;16.316;2024-03-25T04:50:07;2.80;;;1.60;;
20814;SDS011;10568;48.176;16.316;2024-03-25T04:52:34;3.53;;;1.50;;
20814;SDS011;10568;48.176;16.316;2024-03-25T04:55:01;1.70;;;1.60;;
20814;SDS011;10568;48.176;16.316;2024-03-25T04:57:32;2.17;;;1.50;;
20814;SDS011;10568;48.176;16.316;2024-03-25T04:59:59;2.30;;;1.60;;
20814;SDS011;10568;48.176;16.316;2024-03-25T05:02:25;3.13;;;1.50;;
20814;SDS011;10568;48.176;16.316;2024-03-25T05:04:52;1.87;;;1.47;;
20814;SDS011;10568;48.176;16.316;2024-03-25T05:07:18;1.70;;;1.37;;
20814;SDS011;10568;48.176;16.316;2024-03-25T05:09:47;2.03;;;1.60;;
20814;SDS011;10568;48.176;16.316;2024-03-25T05:12:13;2.17;;;1.60;;
20814;SDS011;10568;48.176;16.316;2024-03-25T05:14:40;2.63;;;1.60;;
20814;SDS011;10568;48.176;16.316;2024-03-25T05:17:06;1.67;;;1.57;;
20814;SDS011;10568;48.176;16.316;2024-03-25T05:19:33;2.23;;;1.60;;
20814;SDS011;10568;48.176;16.316;2024-03-25T05:22:00;1.83;;;1.60;;
20814;SDS011;10568;48.176;16.316;2024-03-25T05:24:31;1.40;;;1.30;;
20814;SDS011;10568;48.176;16.316;2024-03-25T05:26:58;2.83;;;1.70;;
20814;SDS011;10568;48.176;16.316;2024-03-25T05:29:24;1.60;;;1.50;;
20814;SDS011;10568;48.176;16.316;2024-03-25T05:31:57;2.67;;;1.43;;
20814;SDS011;10568;48.176;16.316;2024-03-25T05:34:27;3.30;;;1.60;;
20814;SDS011;10568;48.176;16.316;2024-03-25T05:36:55;2.50;;;1.50;;
20814;SDS011;10568;48.176;16.316;2024-03-25T05:39:21;2.07;;;1.50;;
20814;SDS011;10568;48.176;16.316;2024-03-25T05:41:48;1.80;;;1.40;;
20814;SDS011;10568;48.176;16.316;2024-03-25T05:44:14;2.20;;;1.40;;
20814;SDS011;10568;48.176;16.316;2024-03-25T05:46:43;2.30;;;1.60;;
20814;SDS011;10568;48.176;16.316;2024-03-25T05:49:09;1.93;;;1.60;;
20814;SDS011;10568;48.176;16.316;2024-03-25T05:51:35;4.57;;;1.90;;
20814;SDS011;10568;48.176;16.316;2024-03-25T05:54:01;1.60;;;1.40;;
20814;SDS011;10568;48.176;16.316;2024-03-25T05:56:28;1.50;;;1.33;;
20814;SDS011;10568;48.176;16.316;2024-03-25T05:58:57;1.60;;;1.50;;
20814;SDS011;10568;48.176;16.316;2024-03-25T06:01:34;2.40;;;1.60;;
20814;SDS011;10568;48.176;16.316;2024-03-25T06:04:10;2.10;;;1.57;;
20814;SDS011;10568;48.176;16.316;2024-03-25T06:06:37;1.67;;;1.53;;
20814;SDS011;10568;48.176;16.316;2024-03-25T06:09:03;3.67;;;1.80;;
20814;SDS011;10568;48.176;16.316;2024-03-25T06:11:31;2.90;;;1.63;;
20814;SDS011;10568;48.176;16.316;2024-03-25T06:13:57;2.57;;;1.40;;
20814;SDS011;10568;48.176;16.316;2024-03-25T06:16:23;2.40;;;1.70;;
20814;SDS011;10568;48.176;16.316;2024-03-25T06:18:51;2.27;;;1.60;;
20814;SDS011;10568;48.176;16.316;2024-03-25T06:21:18;1.90;;;1.57;;
20814;SDS011;10568;48.176;16.316;2024-03-25T06:23:44;3.53;;;1.47;;
20814;SDS011;10568;48.176;16.316;2024-03-25T06:26:10;2.63;;;1.60;;
20814;SDS011;10568;48.176;16.316;2024-03-25T06:28:38;2.40;;;1.97;;
20814;SDS011;10568;48.176;16.316;2024-03-25T06:31:08;3.83;;;1.60;;
20814;SDS011;10568;48.176;16.316;2024-03-25T06:33:56;4.03;;;1.80;;
20814;SDS011;10568;48.176;16.316;2024-03-25T06:36:43;3.70;;;2.00;;
20814;SDS011;10568;48.176;16.316;2024-03-25T06:39:10;2.13;;;1.60;;
20814;SDS011;10568;48.176;16.316;2024-03-25T06:41:39;2.40;;;2.00;;
20814;SDS011;10568;48.176;16.316;2024-03-25T06:44:06;5.00;;;1.60;;
20814;SDS011;10568;48.176;16.316;2024-03-25T06:46:33;2.83;;;1.87;;
20814;SDS011;10568;48.176;16.316;2024-03-25T06:49:02;2.10;;;1.70;;
20814;SDS011;10568;48.176;16.316;2024-03-25T06:51:29;2.40;;;1.80;;
20814;SDS011;10568;48.176;16.316;2024-03-25T06:53:55;1.93;;;1.73;;
20814;SDS011;10568;48.176;16.316;2024-03-25T06:56:21;6.03;;;2.07;;
20814;SDS011;10568;48.176;16.316;2024-03-25T06:58:47;2.33;;;1.83;;
20814;SDS011;10568;48.176;16.316;2024-03-25T07:01:13;3.30;;;1.77;;
20814;SDS011;10568;48.176;16.316;2024-03-25T07:03:39;2.03;;;1.70;;
20814;SDS011;10568;48.176;16.316;2024-03-25T07:06:06;2.13;;;1.60;;
20814;SDS011;10568;48.176;16.316;2024-03-25T07:08:34;4.93;;;1.53;;
20814;SDS011;10568;48.176;16.316;2024-03-25T07:11:01;2.57;;;1.60;;
20814;SDS011;10568;48.176;16.316;2024-03-25T07:13:30;1.53;;;1.37;;
20814;SDS011;10568;48.176;16.316;2024-03-25T07:15:56;1.93;;;1.73;;
20814;SDS011;10568;48.176;16.316;2024-03-25T07:18:22;1.87;;;1.47;;
20814;SDS011;10568;48.176;16.316;2024-03-25T07:20:52;2.50;;;1.57;;
20814;SDS011;10568;48.176;16.316;2024-03-25T07:23:20;2.57;;;1.67;;
20814;SDS011;10568;48.176;16.316;2024-03-25T07:25:47;4.23;;;1.87;;
20814;SDS011;10568;48.176;16.316;2024-03-25T07:28:19;2.30;;;1.50;;
20814;SDS011;10568;48.176;16.316;2024-03-25T07:30:45;1.90;;;1.60;;
20814;SDS011;10568;48.176;16.316;2024-03-25T07:33:11;2.97;;;1.60;;
20814;SDS011;10568;48.176;16.316;2024-03-25T07:35:37;2.83;;;1.60;;
20814;SDS011;10568;48.176;16.316;2024-03-25T07:38:03;3.23;;;1.80;;
20814;SDS011;10568;48.176;16.316;2024-03-25T07:40:30;2.63;;;1.50;;
20814;SDS011;10568;48.176;16.316;2024-03-25T07:42:56;2.50;;;1.70;;
20814;SDS011;10568;48.176;16.316;2024-03-25T07:45:22;3.03;;;1.67;;
20814;SDS011;10568;48.176;16.316;2024-03-25T07:47:48;2.43;;;1.53;;
20814;SDS011;10568;48.176;16.316;2024-03-25T07:50:15;1.90;;;1.50;;
20814;SDS011;10568;48.176;16.316;2024-03-25T07:52:44;3.67;;;1.60;;
20814;SDS011;10568;48.176;16.316;2024-03-25T07:55:11;2.40;;;1.57;;
20814;SDS011;10568;48.176;16.316;2024-03-25T07:57:38;5.53;;;1.43;;
20814;SDS011;10568;48.176;16.316;2024-03-25T08:00:05;3.03;;;1.63;;
20814;SDS011;10568;48.176;16.316;2024-03-25T08:02:39;3.17;;;1.60;;
20814;SDS011;10568;48.176;16.316;2024-03-25T08:05:05;2.63;;;1.50;;
20814;SDS011;10568;48.176;16.316;2024-03-25T08:07:34;1.40;;;1.30;;
20814;SDS011;10568;48.176;16.316;2024-03-25T08:10:00;1.37;;;1.00;;
20814;SDS011;10568;48.176;16.316;2024-03-25T08:12:26;2.60;;;1.47;;
20814;SDS011;10568;48.176;16.316;2024-03-25T08:14:53;4.17;;;1.20;;
20814;SDS011;10568;48.176;16.316;2024-03-25T08:17:19;3.63;;;1.40;;
20814;SDS011;10568;48.176;16.316;2024-03-25T08:19:45;2.37;;;1.47;;
20814;SDS011;10568;48.176;16.316;2024-03-25T08:22:11;2.80;;;1.77;;
20814;SDS011;10568;48.176;16.316;2024-03-25T08:24:37;2.30;;;1.30;;
20814;SDS011;10568;48.176;16.316;2024-03-25T08:27:03;1.63;;;1.53;;
20814;SDS011;10568;48.176;16.316;2024-03-25T08:29:32;2.17;;;1.47;;
20814;SDS011;10568;48.176;16.316;2024-03-25T08:32:03;3.07;;;1.80;;
20814;SDS011;10568;48.176;16.316;2024-03-25T08:34:33;2.60;;;1.30;;
20814;SDS011;10568;48.176;16.316;2024-03-25T08:36:59;1.73;;;1.40;;
20814;SDS011;10568;48.176;16.316;2024-03-25T08:39:26;1.60;;;1.23;;
20814;SDS011;10568;48.176;16.316;2024-03-25T08:41:52;2.03;;;1.30;;
20814;SDS011;10568;48.176;16.316;2024-03-25T08:44:18;2.43;;;1.47;;
20814;SDS011;10568;48.176;16.316;2024-03-25T08:46:44;1.83;;;1.27;;
20814;SDS011;10568;48.176;16.316;2024-03-25T08:49:10;2.33;;;1.20;;
20814;SDS011;10568;48.176;16.316;2024-03-25T08:51:36;1.50;;;1.40;;
20814;SDS011;10568;48.176;16.316;2024-03-25T08:54:02;1.47;;;1.27;;
20814;SDS011;10568;48.176;16.316;2024-03-25T08:56:29;2.97;;;1.30;;
20814;SDS011;10568;48.176;16.316;2024-03-25T08:58:55;2.60;;;1.67;;
20814;SDS011;10568;48.176;16.316;2024-03-25T09:01:23;3.37;;;1.77;;
20814;SDS011;10568;48.176;16.316;2024-03-25T09:03:50;1.57;;;1.30;;
20814;SDS011;10568;48.176;16.316;2024-03-25T09:06:16;1.20;;;1.10;;
20814;SDS011;10568;48.176;16.316;2024-03-25T09:08:42;1.70;;;1.20;;
20814;SDS011;10568;48.176;16.316;2024-03-25T09:11:29;1.20;;;1.10;;
20814;SDS011;10568;48.176;16.316;2024-03-25T09:13:55;1.50;;;1.10;;
20814;SDS011;10568;48.176;16.316;2024-03-25T09:16:21;1.20;;;1.10;;
20814;SDS011;10568;48.176;16.316;2024-03-25T09:18:49;2.53;;;1.07;;
20814;SDS011;10568;48.176;16.316;2024-03-25T09:21:15;1.03;;;0.80;;
20814;SDS011;10568;48.176;16.316;2024-03-25T09:23:42;1.10;;;1.00;;
20814;SDS011;10568;48.176;16.316;2024-03-25T09:26:08;3.40;;;1.27;;
20814;SDS011;10568;48.176;16.316;2024-03-25T09:28:36;2.97;;;1.33;;
20814;SDS011;10568;48.176;16.316;2024-03-25T09:31:02;2.13;;;1.00;;
20814;SDS011;10568;48.176;16.316;2024-03-25T09:33:31;1.53;;;0.97;;
20814;SDS011;10568;48.176;16.316;2024-03-25T09:35:59;1.93;;;1.40;;
20814;SDS011;10568;48.176;16.316;2024-03-25T09:38:25;2.50;;;1.37;;
20814;SDS011;10568;48.176;16.316;2024-03-25T09:40:52;2.40;;;1.43;;
20814;SDS011;10568;48.176;16.316;2024-03-25T09:43:25;3.57;;;1.60;;
20814;SDS011;10568;48.176;16.316;2024-03-25T09:45:57;2.40;;;1.40;;
20814;SDS011;10568;48.176;16.316;2024-03-25T09:48:24;2.70;;;1.30;;
20814;SDS011;10568;48.176;16.316;2024-03-25T09:50:51;2.20;;;1.30;;
20814;SDS011;10568;48.176;16.316;2024-03-25T09:53:18;1.30;;;1.20;;
20814;SDS011;10568;48.176;16.316;2024-03-25T09:55:48;1.67;;;1.00;;
20814;SDS011;10568;48.176;16.316;2024-03-25T09:58:14;1.27;;;0.83;;
20814;SDS011;10568;48.176;16.316;2024-03-25T10:00:43;1.10;;;1.00;;
20814;SDS011;10568;48.176;16.316;2024-03-25T10:03:09;1.67;;;1.03;;
20814;SDS011;10568;48.176;16.316;2024-03-25T10:05:40;2.10;;;1.17;;
20814;SDS011;10568;48.176;16.316;2024-03-25T10:08:07;3.17;;;1.00;;
20814;SDS011;10568;48.176;16.316;2024-03-25T10:10:34;2.43;;;1.03;;
20814;SDS011;10568;48.176;16.316;2024-03-25T10:13:03;1.37;;;0.90;;
20814;SDS011;10568;48.176;16.316;2024-03-25T10:15:32;1.27;;;0.97;;
20814;SDS011;10568;48.176;16.316;2024-03-25T10:17:58;1.50;;;0.90;;
20814;SDS011;10568;48.176;16.316;2024-03-25T10:20:24;1.10;;;0.90;;
20814;SDS011;10568;48.176;16.316;2024-03-25T10:22:51;1.30;;;1.00;;
20814;SDS011;10568;48.176;16.316;2024-03-25T10:25:25;2.43;;;1.27;;
20814;SDS011;10568;48.176;16.316;2024-03-25T10:27:55;1.37;;;0.80;;
20814;SDS011;10568;48.176;16.316;2024-03-25T10:30:25;0.90;;;0.90;;
20814;SDS011;10568;48.176;16.316;2024-03-25T10:32:57;2.57;;;1.27;;
20814;SDS011;10568;48.176;16.316;2024-03-25T10:35:27;1.40;;;1.03;;
20814;SDS011;10568;48.176;16.316;2024-03-25T10:37:59;0.80;;;0.80;;
20814;SDS011;10568;48.176;16.316;2024-03-25T10:40:27;1.50;;;1.27;;
20814;SDS011;10568;48.176;16.316;2024-03-25T10:42:56;3.93;;;1.50;;
20814;SDS011;10568;48.176;16.316;2024-03-25T10:45:26;1.57;;;1.20;;
20814;SDS011;10568;48.176;16.316;2024-03-25T10:47:55;1.90;;;1.27;;
20814;SDS011;10568;48.176;16.316;2024-03-25T10:50:28;2.03;;;1.10;;
20814;SDS011;10568;48.176;16.316;2024-03-25T10:52:56;3.40;;;1.10;;
20814;SDS011;10568;48.176;16.316;2024-03-25T10:55:24;1.20;;;1.10;;
20814;SDS011;10568;48.176;16.316;2024-03-25T10:57:54;1.10;;;1.00;;
20814;SDS011;10568;48.176;16.316;2024-03-25T11:00:23;2.27;;;1.10;;
20814;SDS011;10568;48.176;16.316;2024-03-25T11:02:49;1.63;;;1.10;;
20814;SDS011;10568;48.176;16.316;2024-03-25T11:05:17;1.67;;;1.10;;
20814;SDS011;10568;48.176;16.316;2024-03-25T11:07:44;2.67;;;1.23;;
20814;SDS011;10568;48.176;16.316;2024-03-25T11:10:13;1.70;;;1.10;;
20814;SDS011;10568;48.176;16.316;2024-03-25T11:12:41;1.23;;;0.97;;
20814;SDS011;10568;48.176;16.316;2024-03-25T11:15:09;1.73;;;1.27;;
20814;SDS011;10568;48.176;16.316;2024-03-25T11:17:35;1.63;;;0.90;;
20814;SDS011;10568;48.176;16.316;2024-03-25T11:20:06;3.37;;;1.30;;
20814;SDS011;10568;48.176;16.316;2024-03-25T11:22:50;2.23;;;1.30;;
20814;SDS011;10568;48.176;16.316;2024-03-25T11:25:17;1.37;;;1.10;;
20814;SDS011;10568;48.176;16.316;2024-03-25T11:27:46;1.27;;;1.07;;
20814;SDS011;10568;48.176;16.316;2024-03-25T11:30:16;1.47;;;1.03;;
20814;SDS011;10568;48.176;16.316;2024-03-25T11:32:43;3.80;;;1.30;;
20814;SDS011;10568;48.176;16.316;2024-03-25T11:35:10;1.50;;;1.10;;
20814;SDS011;10568;48.176;16.316;2024-03-25T11:37:42;2.53;;;1.20;;
20814;SDS011;10568;48.176;16.316;2024-03-25T11:40:09;1.93;;;1.20;;
20814;SDS011;10568;48.176;16.316;2024-03-25T11:42:38;2.90;;;1.10;;
20814;SDS011;10568;48.176;16.316;2024-03-25T11:45:23;2.30;;;1.00;;
20814;SDS011;10568;48.176;16.316;2024-03-25T11:47:50;1.83;;;1.00;;
20814;SDS011;10568;48.176;16.316;2024-03-25T11:50:17;2.90;;;1.03;;
20814;SDS011;10568;48.176;16.316;2024-03-25T11:52:45;1.97;;;0.97;;
20814;SDS011;10568;48.176;16.316;2024-03-25T11:55:16;1.97;;;1.20;;
20814;SDS011;10568;48.176;16.316;2024-03-25T11:57:43;1.43;;;0.97;;
20814;SDS011;10568;48.176;16.316;2024-03-25T12:00:10;1.27;;;0.97;;
20814;SDS011;10568;48.176;16.316;2024-03-25T12:02:43;2.00;;;1.20;;
20814;SDS011;10568;48.176;16.316;2024-03-25T12:05:12;2.23;;;1.20;;
20814;SDS011;10568;48.176;16.316;2024-03-25T12:07:38;1.73;;;1.10;;
20814;SDS011;10568;48.176;16.316;2024-03-25T12:10:05;1.10;;;1.00;;
20814;SDS011;10568;48.176;16.316;2024-03-25T12:12:50;4.27;;;1.30;;
20814;SDS011;10568;48.176;16.316;2024-03-25T12:15:19;3.00;;;0.97;;
20814;SDS011;10568;48.176;16.316;2024-03-25T12:17:46;2.47;;;1.20;;
20814;SDS011;10568;48.176;16.316;2024-03-25T12:20:16;0.90;;;0.80;;
20814;SDS011;10568;48.176;16.316;2024-03-25T12:22:43;1.87;;;0.97;;
20814;SDS011;10568;48.176;16.316;2024-03-25T12:25:10;1.13;;;0.90;;
20814;SDS011;10568;48.176;16.316;2024-03-25T12:32:02;3.47;;;1.10;;
20814;SDS011;10568;48.176;16.316;2024-03-25T12:37:26;1.90;;;0.90;;
20814;SDS011;10568;48.176;16.316;2024-03-25T12:39:52;1.20;;;1.10;;
20814;SDS011;10568;48.176;16.316;2024-03-25T12:42:18;2.67;;;1.30;;
20814;SDS011;10568;48.176;16.316;2024-03-25T12:44:45;2.30;;;1.07;;
20814;SDS011;10568;48.176;16.316;2024-03-25T12:47:11;1.27;;;1.00;;
20814;SDS011;10568;48.176;16.316;2024-03-25T12:49:38;2.07;;;1.30;;
20814;SDS011;10568;48.176;16.316;2024-03-25T12:52:05;3.40;;;1.20;;
20814;SDS011;10568;48.176;16.316;2024-03-25T12:54:32;1.40;;;1.20;;
20814;SDS011;10568;48.176;16.316;2024-03-25T12:56:59;2.27;;;1.30;;
20814;SDS011;10568;48.176;16.316;2024-03-25T12:59:25;2.07;;;1.30;;
20814;SDS011;10568;48.176;16.316;2024-03-25T13:01:53;1.40;;;1.17;;
20814;SDS011;10568;48.176;16.316;2024-03-25T13:04:19;2.23;;;1.30;;
20814;SDS011;10568;48.176;16.316;2024-03-25T13:06:45;1.43;;;1.20;;
20814;SDS011;10568;48.176;16.316;2024-03-25T13:09:27;1.47;;;1.23;;
20814;SDS011;10568;48.176;16.316;2024-03-25T13:11:53;3.23;;;1.10;;
20814;SDS011;10568;48.176;16.316;2024-03-25T13:14:19;2.07;;;1.17;;
20814;SDS011;10568;48.176;16.316;2024-03-25T13:16:45;1.37;;;1.00;;
20814;SDS011;10568;48.176;16.316;2024-03-25T13:19:11;2.73;;;1.10;;
20814;SDS011;10568;48.176;16.316;2024-03-25T13:21:37;2.10;;;0.90;;
20814;SDS011;10568;48.176;16.316;2024-03-25T13:24:04;3.03;;;1.00;;
20814;SDS011;10568;48.176;16.316;2024-03-25T13:26:30;2.70;;;1.20;;
20814;SDS011;10568;48.176;16.316;2024-03-25T13:28:56;1.33;;;1.00;;
20814;SDS011;10568;48.176;16.316;2024-03-25T13:31:22;1.57;;;1.20;;
20814;SDS011;10568;48.176;16.316;2024-03-25T13:33:49;2.27;;;1.13;;
20814;SDS011;10568;48.176;16.316;2024-03-25T13:36:15;2.00;;;1.00;;
20814;SDS011;10568;48.176;16.316;2024-03-25T13:38:41;3.90;;;1.20;;
20814;SDS011;10568;48.176;16.316;2024-03-25T13:41:07;1.30;;;0.80;;
20814;SDS011;10568;48.176;16.316;2024-03-25T13:43:33;3.73;;;1.20;;
20814;SDS011;10568;48.176;16.316;2024-03-25T13:46:00;7.43;;;1.33;;
20814;SDS011;10568;48.176;16.316;2024-03-25T13:48:26;2.23;;;1.00;;
20814;SDS011;10568;48.176;16.316;2024-03-25T13:50:55;2.97;;;1.13;;
20814;SDS011;10568;48.176;16.316;2024-03-25T13:53:21;1.63;;;1.20;;
20814;SDS011;10568;48.176;16.316;2024-03-25T13:55:47;1.90;;;1.20;;
20814;SDS011;10568;48.176;16.316;2024-03-25T13:58:13;4.13;;;1.33;;
20814;SDS011;10568;48.176;16.316;2024-03-25T14:00:39;1.70;;;1.17;;
20814;SDS011;10568;48.176;16.316;2024-03-25T14:03:06;1.43;;;1.17;;
20814;SDS011;10568;48.176;16.316;2024-03-25T14:05:32;1.40;;;1.00;;
20814;SDS011;10568;48.176;16.316;2024-03-25T14:07:58;1.63;;;1.10;;
20814;SDS011;10568;48.176;16.316;2024-03-25T14:10:24;2.60;;;1.00;;
20814;SDS011;10568;48.176;16.316;2024-03-25T14:12:51;1.10;;;1.00;;
20814;SDS011;10568;48.176;16.316;2024-03-25T14:15:17;1.00;;;0.90;;
20814;SDS011;10568;48.176;16.316;2024-03-25T14:17:43;1.23;;;0.90;;
20814;SDS011;10568;48.176;16.316;2024-03-25T14:20:12;1.70;;;1.10;;
20814;SDS011;10568;48.176;16.316;2024-03-25T14:22:38;2.83;;;1.20;;
20814;SDS011;10568;48.176;16.316;2024-03-25T14:25:05;2.30;;;1.20;;
20814;SDS011;10568;48.176;16.316;2024-03-25T14:27:31;1.30;;;1.20;;
20814;SDS011;10568;48.176;16.316;2024-03-25T14:29:57;1.47;;;1.20;;
20814;SDS011;10568;48.176;16.316;2024-03-25T14:32:24;2.90;;;1.30;;
20814;SDS011;10568;48.176;16.316;2024-03-25T14:34:50;1.67;;;1.10;;
20814;SDS011;10568;48.176;16.316;2024-03-25T14:37:16;1.70;;;1.30;;
20814;SDS011;10568;48.176;16.316;2024-03-25T14:39:42;1.47;;;1.17;;
20814;SDS011;10568;48.176;16.316;2024-03-25T14:42:09;2.73;;;1.30;;
20814;SDS011;10568;48.176;16.316;2024-03-25T14:44:39;1.83;;;1.30;;
20814;SDS011;10568;48.176;16.316;2024-03-25T14:47:05;1.33;;;1.00;;
20814;SDS011;10568;48.176;16.316;2024-03-25T14:49:31;2.27;;;1.17;;